Grafton, Vermont
Current Conditions -  °F | °C
As of 2:54 PM on Saturday 25 Oct 2014 (Local Time) from KVSF Reporting Station
Broken Clouds Broken Clouds  
Wind Chill: 61°   Ceiling: 5500
Heat Index: 61°   Visibility: 10mi
Dew Point: 41°   Wind: 3mph
Humidity: 48%   Direction: NA
Pressure: 29.6"   Gusts: NA
Location:  43.17°N, 72.61°W
Report Text: KVSF 251854Z AUTO VRB03KT 10SM BKN055 16/05 A2960 RMK AO2 SLP027 T01610050
Loading
Personal Weather Stations






























Interactive Weather Map
Tropical Storm Tracking
New forecast layout! Learn more

10-Day Weather Forecast

Advertisements
Track Severe Weather on mobile